Terminal Aerodrome Forecast
Issued by NWS Lake Charles, LA

Home | Current Version | Previous Version | Text Only | Print | Product List | Glossary On
Versions: 1 2 3 4 5 6 7 8 9 10 11 12 13 14
180
FTUS44 KLCH 252003 AAA
TAFLFT
TAF AMD
KLFT 252003Z 2520/2618 17008KT P6SM VCTS SCT040CB SCT080
     FM260100 VRB03KT P6SM FEW050 SCT250=

USA.gov is the U.S. government's official web portal to all federal, state and local government web resources and services.